Time;durP1;ratioP1;P1;durP2;ratioP2;P2;SDS_P1;SDS_P2;PMS_P1;PMS_P2;Temp;Humidity;BMP_temperature;BMP_pressure;BME280_temperature;BME280_humidity;BME280_pressure;Samples;Min_cycle;Max_cycle;Signal;HPM_P1;HPM_P2
2023/12/28 00:01:46;;;;;;;4.72;2.80;;;;;;;0.52;60.64;99062.06;4965722;28;20110;-73
2023/12/28 00:04:12;;;;;;;4.72;2.90;;;;;;;0.44;60.30;99050.81;4954837;28;20082;-74
2023/12/28 00:06:38;;;;;;;4.88;2.72;;;;;;;0.49;59.92;99069.69;4970657;28;20185;-73
2023/12/28 00:09:04;;;;;;;4.97;2.75;;;;;;;0.28;60.69;99042.81;4966002;28;20588;-74
2023/12/28 00:11:30;;;;;;;4.55;2.70;;;;;;;0.20;61.14;99041.78;4953935;28;20469;-73
2023/12/28 00:13:56;;;;;;;5.53;3.00;;;;;;;0.34;61.24;99077.03;4965787;28;20038;-74
2023/12/28 00:16:23;;;;;;;5.93;3.30;;;;;;;0.14;60.83;99057.00;4968453;28;20070;-74
2023/12/28 00:18:49;;;;;;;6.88;3.42;;;;;;;0.18;61.40;99060.50;4953867;28;20128;-74
2023/12/28 00:21:15;;;;;;;5.60;3.30;;;;;;;0.14;61.19;99057.00;4950176;28;20105;-74
2023/12/28 00:23:41;;;;;;;5.20;3.00;;;;;;;0.18;61.53;99078.41;4948839;28;20052;-73
2023/12/28 00:26:07;;;;;;;4.97;2.78;;;;;;;0.07;60.89;99066.25;4967406;28;20109;-73
2023/12/28 00:28:33;;;;;;;4.88;2.83;;;;;;;-0.01;61.41;99060.97;4948525;28;20141;-72
2023/12/28 00:30:59;;;;;;;4.43;2.72;;;;;;;0.11;61.38;99091.06;4968973;28;20173;-73
2023/12/28 00:33:25;;;;;;;5.32;3.00;;;;;;;-0.04;61.40;99063.44;4946996;28;20038;-73
2023/12/28 00:35:51;;;;;;;6.28;3.00;;;;;;;0.07;61.96;99085.88;4953002;28;20397;-71
2023/12/28 00:38:16;;;;;;;4.22;2.60;;;;;;;0.08;61.72;99100.38;4968668;28;20493;-74
2023/12/28 00:40:42;;;;;;;6.32;2.90;;;;;;;-0.07;61.92;99086.41;4963439;28;20055;-72
2023/12/28 00:43:08;;;;;;;4.97;2.78;;;;;;;-0.05;62.50;99089.88;4950415;28;20069;-72
2023/12/28 00:45:34;;;;;;;5.18;2.70;;;;;;;-0.71;62.23;98999.72;4952411;28;20050;-71
2023/12/28 00:48:00;;;;;;;6.47;3.35;;;;;;;-0.10;62.06;99096.56;4967365;28;20387;-72
2023/12/28 00:50:31;;;;;;;6.85;3.65;;;;;;;-0.20;62.70;99082.69;4962719;28;20425;-72
2023/12/28 00:52:57;;;;;;;6.78;3.50;;;;;;;-0.37;62.20;99067.00;4967616;28;20049;-74
2023/12/28 00:55:24;;;;;;;7.25;3.40;;;;;;;-0.20;62.38;99103.16;4963976;28;20046;-74
2023/12/28 00:57:50;;;;;;;6.50;3.30;;;;;;;-0.35;62.41;99080.69;4966682;28;20035;-71
2023/12/28 01:00:16;;;;;;;6.05;3.10;;;;;;;-0.31;62.89;99099.50;4963145;28;20035;-73
2023/12/28 01:02:43;;;;;;;5.38;2.67;;;;;;;-0.26;63.39;99120.06;4966883;28;20073;-73
2023/12/28 01:05:12;;;;;;;5.68;2.90;;;;;;;-0.21;63.09;99123.59;4967487;28;20038;-73
2023/12/28 01:07:38;;;;;;;6.80;2.70;;;;;;;-0.17;63.72;99125.41;4950065;28;20053;-73
2023/12/28 01:10:05;;;;;;;5.07;2.80;;;;;;;-0.17;63.52;99123.69;4968103;28;20138;-71
2023/12/28 01:12:31;;;;;;;4.65;2.42;;;;;;;-0.10;63.83;99127.25;4965751;28;20039;-72
2023/12/28 01:14:59;;;;;;;4.78;2.53;;;;;;;-0.19;63.40;99116.81;4953388;28;20505;-73
2023/12/28 01:17:25;;;;;;;4.28;2.65;;;;;;;-0.20;63.33;99125.31;4950014;28;20133;-72
2023/12/28 01:19:51;;;;;;;3.88;2.30;;;;;;;-0.23;63.20;99120.13;4968258;28;20134;-73
2023/12/28 01:22:17;;;;;;;4.03;2.10;;;;;;;-0.16;63.33;99142.47;4968027;28;20042;-74
2023/12/28 01:24:46;;;;;;;3.08;2.33;;;;;;;-0.15;63.98;99144.22;4948788;28;21738;-72
2023/12/28 01:27:13;;;;;;;4.57;2.35;;;;;;;-0.16;63.77;99147.59;4964705;28;20043;-71
2023/12/28 01:29:38;;;;;;;6.25;2.67;;;;;;;-0.19;63.88;99142.41;4969232;28;20043;-74
2023/12/28 01:32:05;;;;;;;3.25;2.40;;;;;;;-0.25;63.91;99139.69;4963854;28;20042;-73
2023/12/28 01:34:31;;;;;;;3.55;2.40;;;;;;;-0.25;64.64;99132.03;4966396;28;20053;-72
2023/12/28 01:36:57;;;;;;;5.00;2.92;;;;;;;-0.32;64.26;99121.63;4968508;28;20134;-72
2023/12/28 01:39:23;;;;;;;5.05;2.60;;;;;;;-0.28;64.27;99126.81;4963573;28;20066;-72
2023/12/28 01:41:49;;;;;;;5.30;2.40;;;;;;;-0.17;63.90;99150.97;4965400;28;20073;-73
2023/12/28 01:44:15;;;;;;;5.07;2.58;;;;;;;-0.34;64.63;99117.31;4962138;28;20549;-73
2023/12/28 01:46:42;;;;;;;3.45;2.20;;;;;;;-0.16;64.72;99147.59;4968297;28;20129;-71
2023/12/28 01:49:08;;;;;;;4.43;2.47;;;;;;;-0.21;63.99;99144.06;4966231;28;20454;-73
2023/12/28 01:51:35;;;;;;;4.55;2.70;;;;;;;-0.26;64.43;99149.06;4965226;28;20043;-72
2023/12/28 01:54:02;;;;;;;6.53;2.90;;;;;;;-0.32;64.91;99136.13;4979769;28;20133;-72
2023/12/28 01:56:28;;;;;;;4.70;3.00;;;;;;;-0.18;64.37;99162.03;4962750;28;20552;-73
2023/12/28 01:58:54;;;;;;;4.57;2.92;;;;;;;-0.17;64.79;99150.97;4947400;28;20042;-74
2023/12/28 02:01:21;;;;;;;6.47;2.80;;;;;;;-0.54;64.44;99081.03;4950941;28;20528;-73
2023/12/28 02:03:47;;;;;;;6.72;2.97;;;;;;;-0.01;65.01;99160.75;4979331;28;20100;-71
2023/12/28 02:06:18;;;;;;;4.05;2.47;;;;;;;-0.06;64.59;99159.75;4965714;28;20053;-72
2023/12/28 02:08:45;;;;;;;6.55;2.90;;;;;;;-0.04;64.86;99177.72;4962662;28;20049;-71
2023/12/28 02:11:12;;;;;;;5.75;2.80;;;;;;;-0.05;64.72;99176.84;4935314;28;20105;-72
2023/12/28 02:13:38;;;;;;;5.15;2.60;;;;;;;-0.21;64.71;99149.16;4964792;28;20445;-72
2023/12/28 02:16:20;;;;;;;6.13;2.90;;;;;;;-0.07;64.55;99172.53;4967005;28;20101;-73
2023/12/28 02:18:53;;;;;;;5.70;2.67;;;;;;;-0.12;64.84;99166.44;4952553;28;20046;-71
2023/12/28 02:21:20;;;;;;;5.75;2.83;;;;;;;-0.08;64.88;99150.34;4963207;28;20035;-73
2023/12/28 02:23:50;;;;;;;5.72;2.75;;;;;;;0.07;64.93;99175.41;4966008;28;20509;-72
2023/12/28 02:26:17;;;;;;;4.68;3.00;;;;;;;-0.02;64.95;99166.69;4945886;28;20042;-73
2023/12/28 02:28:45;;;;;;;5.00;3.15;;;;;;;0.05;65.00;99171.97;4980262;28;20421;-71
2023/12/28 02:31:37;;;;;;;5.50;2.70;;;;;;;0.03;65.13;99166.78;4962696;28;20537;-71
2023/12/28 02:34:15;;;;;;;5.88;2.28;;;;;;;0.04;65.41;99170.22;4943332;28;20081;-71
2023/12/28 02:36:44;;;;;;;4.43;2.72;;;;;;;0.06;65.68;99171.13;4931713;28;20070;-71
2023/12/28 02:39:14;;;;;;;4.80;2.67;;;;;;;0.03;65.68;99165.94;4966745;28;20454;-71
2023/12/28 02:41:42;;;;;;;5.32;2.90;;;;;;;0.14;64.80;99185.81;4963516;28;20058;-71
2023/12/28 02:44:09;;;;;;;4.28;2.50;;;;;;;0.05;64.87;99177.06;4963944;28;20043;-72
2023/12/28 02:46:35;;;;;;;4.75;2.63;;;;;;;0.22;65.85;99195.38;4968264;28;20057;-71
2023/12/28 02:49:02;;;;;;;4.15;2.50;;;;;;;0.11;65.70;99156.75;4964725;28;20128;-71
2023/12/28 02:51:28;;;;;;;4.22;2.50;;;;;;;0.07;65.70;99134.47;4947004;28;20121;-72
2023/12/28 02:53:54;;;;;;;5.10;2.88;;;;;;;0.45;65.65;99189.06;4963316;28;20399;-71
2023/12/28 02:56:20;;;;;;;4.88;2.90;;;;;;;0.53;65.68;99191.81;4942900;28;20049;-71
2023/12/28 02:58:45;;;;;;;4.40;2.70;;;;;;;0.40;65.34;99183.00;4965263;28;20042;-71
2023/12/28 03:01:12;;;;;;;7.20;3.05;;;;;;;0.21;65.44;99157.81;4967542;28;20093;-71
2023/12/28 03:03:38;;;;;;;5.22;3.25;;;;;;;0.41;65.51;99191.53;4969358;28;20046;-71
2023/12/28 03:06:04;;;;;;;4.88;2.50;;;;;;;0.29;65.00;99187.00;4937686;28;20043;-72
2023/12/28 03:08:31;;;;;;;4.45;2.67;;;;;;;0.26;65.63;99186.94;4966487;28;20055;-71
2023/12/28 03:10:56;;;;;;;5.00;2.80;;;;;;;0.27;65.68;99202.34;4950237;28;20049;-71
2023/12/28 03:13:22;;;;;;;4.38;2.80;;;;;;;0.20;66.10;99190.22;4969667;28;20138;-71
2023/12/28 03:15:48;;;;;;;4.00;2.45;;;;;;;0.09;65.56;99184.00;4982994;28;20126;-71
2023/12/28 03:18:14;;;;;;;4.53;2.90;;;;;;;0.11;65.79;99197.69;4951966;28;20501;-70
2023/12/28 03:20:40;;;;;;;6.55;3.00;;;;;;;-0.03;65.88;99182.88;4965721;28;20136;-72
2023/12/28 03:23:07;;;;;;;6.10;2.63;;;;;;;0.15;66.03;99217.38;4968925;28;20413;-72
2023/12/28 03:25:33;;;;;;;5.32;2.72;;;;;;;-0.04;66.24;99188.81;4967034;28;21703;-71
2023/12/28 03:27:59;;;;;;;4.22;2.72;;;;;;;0.12;65.83;99222.41;4970866;28;20042;-73
2023/12/28 03:30:25;;;;;;;4.75;2.80;;;;;;;-0.01;65.93;99204.22;4967365;28;20133;-71
2023/12/28 03:32:51;;;;;;;3.75;2.20;;;;;;;-0.01;65.52;99198.25;4965906;28;20393;-71
2023/12/28 03:35:17;;;;;;;4.07;2.67;;;;;;;0.17;65.84;99233.66;4967944;28;20038;-71
2023/12/28 03:37:43;;;;;;;5.75;2.70;;;;;;;0.14;66.46;99213.09;4951592;28;20454;-72
2023/12/28 03:40:10;;;;;;;5.05;2.90;;;;;;;0.20;66.17;99213.25;4965946;28;20161;-70
2023/12/28 03:42:36;;;;;;;5.10;2.70;;;;;;;0.20;65.94;99208.13;4938102;28;20417;-71
2023/12/28 03:45:02;;;;;;;4.15;2.70;;;;;;;0.24;65.71;99217.63;4954167;28;20142;-71
2023/12/28 03:47:30;;;;;;;4.53;2.63;;;;;;;0.16;66.03;99216.56;4953121;28;20537;-71
2023/12/28 03:49:57;;;;;;;4.72;3.00;;;;;;;0.09;66.35;99217.25;4953103;28;20409;-70
2023/12/28 03:52:26;;;;;;;4.72;2.80;;;;;;;0.04;66.11;99201.78;4970515;28;20481;-70
2023/12/28 03:54:52;;;;;;;4.18;2.80;;;;;;;0.23;66.20;99226.13;4954092;28;20510;-71
2023/12/28 03:57:19;;;;;;;4.03;2.70;;;;;;;0.25;66.31;99215.91;4949349;28;20046;-72
2023/12/28 03:59:48;;;;;;;3.83;2.70;;;;;;;0.34;65.90;99211.00;4966680;28;20046;-71
2023/12/28 04:02:14;;;;;;;4.28;2.78;;;;;;;0.22;65.86;99180.03;4965632;28;20060;-71
2023/12/28 04:04:40;;;;;;;7.60;2.70;;;;;;;0.38;65.91;99227.28;4971550;28;20142;-71
2023/12/28 04:07:07;;;;;;;5.88;3.10;;;;;;;0.32;65.89;99219.50;4966990;28;20486;-70
2023/12/28 04:09:34;;;;;;;4.78;2.90;;;;;;;0.33;66.00;99227.19;4965377;28;20043;-70
2023/12/28 04:12:00;;;;;;;3.70;2.50;;;;;;;0.29;65.79;99213.47;4962891;28;20042;-71
2023/12/28 04:14:26;;;;;;;4.35;2.80;;;;;;;0.39;66.16;99240.16;4967649;28;20049;-70
2023/12/28 04:16:52;;;;;;;3.90;2.55;;;;;;;0.08;65.97;99187.38;4965257;28;20063;-72
2023/12/28 04:19:18;;;;;;;4.40;2.88;;;;;;;0.33;65.50;99245.13;4965630;28;20460;-71
2023/12/28 04:21:44;;;;;;;4.20;2.53;;;;;;;0.34;65.47;99245.97;4965818;28;20191;-72
2023/12/28 04:24:10;;;;;;;4.97;2.28;;;;;;;0.36;65.37;99246.88;4970213;28;20046;-71
2023/12/28 04:26:36;;;;;;;7.15;2.97;;;;;;;0.36;65.44;99247.75;4980748;28;20062;-70
2023/12/28 04:29:02;;;;;;;3.83;2.83;;;;;;;0.27;66.29;99235.59;4965494;28;20134;-72
2023/12/28 04:31:28;;;;;;;5.07;2.90;;;;;;;0.38;66.05;99256.34;4966668;28;20142;-71
2023/12/28 04:33:54;;;;;;;3.88;2.58;;;;;;;0.34;66.10;99257.09;4967138;28;20030;-71
2023/12/28 04:36:20;;;;;;;5.03;2.80;;;;;;;0.36;66.36;99269.91;4953419;28;20816;-72
2023/12/28 04:38:47;;;;;;;3.92;2.83;;;;;;;0.33;65.58;99257.06;4948747;28;20045;-72
2023/12/28 04:41:13;;;;;;;4.75;2.90;;;;;;;0.33;65.79;99244.25;4952312;28;22005;-74
2023/12/28 04:43:39;;;;;;;5.43;3.15;;;;;;;0.42;65.61;99258.16;4963670;28;20062;-72
2023/12/28 04:46:05;;;;;;;4.35;2.92;;;;;;;0.47;65.78;99253.13;4966426;28;20034;-72
2023/12/28 04:48:32;;;;;;;5.60;3.38;;;;;;;0.48;65.40;99252.28;4935321;28;20049;-72
2023/12/28 04:50:58;;;;;;;5.60;3.30;;;;;;;0.49;65.58;99251.47;4964187;28;20042;-73
2023/12/28 04:53:25;;;;;;;5.20;2.83;;;;;;;0.38;65.34;99228.19;4935885;28;20045;-71
2023/12/28 04:55:51;;;;;;;4.97;2.70;;;;;;;0.43;65.32;99241.06;4965059;28;20074;-71
2023/12/28 04:58:17;;;;;;;4.85;3.10;;;;;;;0.59;65.76;99273.03;4964775;28;20042;-73
2023/12/28 05:00:45;;;;;;;4.07;2.70;;;;;;;0.39;65.49;99239.25;4952040;28;20047;-72
2023/12/28 05:03:11;;;;;;;3.63;2.90;;;;;;;0.50;64.81;99254.88;4965595;28;20123;-71
2023/12/28 05:05:37;;;;;;;4.65;3.10;;;;;;;0.32;64.63;99238.25;4970136;28;20034;-71
2023/12/28 05:08:04;;;;;;;4.63;2.70;;;;;;;0.37;65.12;99275.09;4964572;28;20134;-72
2023/12/28 05:10:30;;;;;;;5.70;3.00;;;;;;;0.18;64.79;99268.63;4951593;28;20042;-72
2023/12/28 05:12:56;;;;;;;4.38;2.38;;;;;;;-0.08;65.55;99227.06;4969590;28;20039;-71
2023/12/28 05:15:22;;;;;;;3.10;2.40;;;;;;;0.19;65.02;99278.06;4953437;28;20043;-72
2023/12/28 05:17:47;;;;;;;4.70;2.78;;;;;;;0.13;65.08;99286.44;4964202;28;20035;-71
2023/12/28 05:20:14;;;;;;;5.00;3.20;;;;;;;-0.06;65.05;99276.59;4964126;28;20043;-74
2023/12/28 05:22:40;;;;;;;3.80;2.50;;;;;;;0.03;65.66;99286.19;4968011;28;20138;-73
2023/12/28 05:25:07;;;;;;;5.13;2.83;;;;;;;-0.23;64.66;99255.69;4963637;28;20129;-72
2023/12/28 05:27:33;;;;;;;3.85;2.63;;;;;;;-0.10;65.81;99287.56;4964540;28;20677;-72
2023/12/28 05:29:59;;;;;;;3.72;2.60;;;;;;;-0.27;65.03;99282.88;4964211;28;20038;-71
2023/12/28 05:32:25;;;;;;;3.90;2.42;;;;;;;-0.20;65.64;99292.41;4964094;28;20097;-71
2023/12/28 05:34:51;;;;;;;4.45;2.90;;;;;;;-0.25;65.57;99276.09;4968374;28;20031;-73
2023/12/28 05:37:17;;;;;;;5.68;2.38;;;;;;;-0.13;65.25;99284.91;4952227;28;20112;-71
2023/12/28 05:39:43;;;;;;;4.95;2.50;;;;;;;0.04;65.26;99305.81;4966354;28;20514;-72
2023/12/28 05:42:09;;;;;;;5.82;2.53;;;;;;;0.13;65.42;99306.03;4964096;28;20034;-72
2023/12/28 05:44:35;;;;;;;4.25;2.75;;;;;;;0.20;65.48;99305.38;4948636;28;20050;-72
2023/12/28 05:47:03;;;;;;;3.83;2.47;;;;;;;0.15;65.07;99286.47;4968614;28;20034;-74
2023/12/28 05:49:30;;;;;;;3.30;2.30;;;;;;;-0.23;65.22;99225.00;4963702;28;20038;-73
2023/12/28 05:51:56;;;;;;;3.42;2.20;;;;;;;-0.35;64.96;99208.53;4952960;28;20031;-74
2023/12/28 05:54:23;;;;;;;3.40;2.20;;;;;;;0.17;65.59;99282.25;4948101;28;20054;-72
2023/12/28 05:56:49;;;;;;;3.53;2.20;;;;;;;0.38;65.19;99304.09;4947429;28;20035;-73
2023/12/28 05:59:15;;;;;;;3.35;1.80;;;;;;;0.31;64.93;99292.84;4962576;28;20092;-74
2023/12/28 06:01:45;;;;;;;4.47;2.45;;;;;;;0.14;64.88;99266.84;4963442;28;20560;-72
2023/12/28 06:04:11;;;;;;;3.63;2.50;;;;;;;-0.12;65.05;99230.38;4967090;28;20073;-73
2023/12/28 06:06:37;;;;;;;3.60;2.42;;;;;;;0.13;64.89;99258.31;4964469;28;20043;-73
2023/12/28 06:09:03;;;;;;;3.75;2.30;;;;;;;0.74;65.42;99293.00;4946784;28;20058;-73
2023/12/28 06:11:30;;;;;;;4.50;1.98;;;;;;;1.37;65.12;99313.13;4962725;28;20126;-73
2023/12/28 06:13:57;;;;;;;5.18;2.03;;;;;;;1.79;64.84;99322.50;4963300;28;20042;-73
2023/12/28 06:16:25;;;;;;;3.90;2.67;;;;;;;1.61;64.46;99253.75;4951019;28;20046;-72
2023/12/28 06:18:51;;;;;;;3.47;2.28;;;;;;;2.57;63.93;99337.53;4962616;28;20113;-75
2023/12/28 06:21:18;;;;;;;2.88;1.95;;;;;;;2.26;63.86;99266.00;4961644;28;20410;-73
2023/12/28 06:23:47;;;;;;;3.42;2.08;;;;;;;2.19;63.73;99281.28;4961210;28;20086;-73
2023/12/28 06:26:13;;;;;;;2.97;2.08;;;;;;;2.39;63.42;99358.66;4964487;28;20070;-71
2023/12/28 06:28:39;;;;;;;3.53;2.40;;;;;;;2.07;63.29;99359.81;4963968;28;20038;-72
2023/12/28 06:31:05;;;;;;;3.47;2.13;;;;;;;1.65;62.80;99301.72;4963318;28;20066;-72
2023/12/28 06:33:31;;;;;;;3.55;2.35;;;;;;;1.18;62.65;99238.41;4967759;28;20076;-74
2023/12/28 06:36:00;;;;;;;3.92;2.63;;;;;;;1.35;62.58;99282.31;4933542;28;20035;-74
2023/12/28 06:38:26;;;;;;;4.53;3.00;;;;;;;1.68;62.38;99359.91;4964550;28;20054;-74
2023/12/28 06:40:52;;;;;;;4.97;2.50;;;;;;;1.29;62.49;99295.00;4950805;28;20557;-73
2023/12/28 06:43:18;;;;;;;4.38;2.80;;;;;;;1.41;62.71;99328.63;4946502;28;20035;-74
2023/12/28 06:45:44;;;;;;;4.68;2.45;;;;;;;1.65;62.39;99371.00;4963797;28;20137;-74
2023/12/28 06:48:10;;;;;;;3.85;2.22;;;;;;;1.65;62.60;99371.00;4965805;28;20407;-74
2023/12/28 06:50:36;;;;;;;2.53;1.88;;;;;;;1.65;62.10;99383.81;4950643;28;20198;-73
2023/12/28 06:53:03;;;;;;;4.10;2.80;;;;;;;1.68;62.34;99393.25;4965821;28;20053;-71
2023/12/28 06:55:31;;;;;;;3.95;2.25;;;;;;;1.68;62.44;99383.84;4964770;28;20058;-73
2023/12/28 06:57:57;;;;;;;5.25;2.30;;;;;;;1.66;62.50;99380.38;4952014;28;20054;-73
2023/12/28 07:00:24;;;;;;;4.43;2.30;;;;;;;1.67;62.08;99379.56;4963948;28;20055;-73
2023/12/28 07:02:50;;;;;;;3.72;2.40;;;;;;;1.54;61.92;99362.19;4935255;28;20082;-72
2023/12/28 07:05:16;;;;;;;2.67;1.90;;;;;;;1.27;61.66;99325.75;4950345;28;20062;-74
2023/12/28 07:07:42;;;;;;;3.55;2.00;;;;;;;1.26;61.85;99329.16;4934732;28;20130;-73
2023/12/28 07:10:10;;;;;;;2.88;1.98;;;;;;;1.31;62.16;99348.06;4951286;28;20043;-72
2023/12/28 07:12:36;;;;;;;3.05;1.85;;;;;;;1.01;61.91;99320.94;4965876;28;20062;-72
2023/12/28 07:15:03;;;;;;;3.03;1.85;;;;;;;1.54;62.09;99416.94;4961819;28;20050;-71
2023/12/28 07:17:31;;;;;;;2.40;1.83;;;;;;;1.20;61.46;99380.28;4964374;28;20073;-72
2023/12/28 07:20:00;;;;;;;2.85;1.88;;;;;;;0.63;62.05;99276.50;4966103;28;20130;-74
2023/12/28 07:22:26;;;;;;;3.60;1.98;;;;;;;1.44;61.85;99415.84;4942124;28;20137;-74
2023/12/28 07:25:13;;;;;;;3.72;2.17;;;;;;;1.43;61.56;99424.41;4951779;28;20043;-74
2023/12/28 07:27:41;;;;;;;3.85;2.10;;;;;;;0.96;61.89;99347.28;4963251;28;20058;-72
2023/12/28 07:30:08;;;;;;;2.63;2.15;;;;;;;0.71;61.03;99306.59;4962176;28;20043;-73
2023/12/28 07:32:41;;;;;;;3.17;2.00;;;;;;;1.35;61.47;99418.22;4960018;28;21886;-72
2023/12/28 07:35:07;;;;;;;3.70;2.08;;;;;;;1.48;61.74;99453.53;4950911;28;20034;-71
2023/12/28 07:37:33;;;;;;;4.95;2.20;;;;;;;1.27;61.67;99406.91;4965052;28;20058;-73
2023/12/28 07:39:59;;;;;;;2.65;1.80;;;;;;;1.47;61.40;99426.16;4963594;28;20517;-72
2023/12/28 07:42:25;;;;;;;3.63;2.17;;;;;;;1.72;61.58;99441.25;4978365;28;20134;-74
2023/12/28 07:44:51;;;;;;;2.35;1.77;;;;;;;1.60;60.50;99429.00;4963997;28;20046;-74
2023/12/28 07:47:16;;;;;;;2.92;1.80;;;;;;;1.57;61.50;99419.53;4967912;28;20122;-73
2023/12/28 07:49:42;;;;;;;3.90;1.90;;;;;;;1.71;61.17;99430.09;4967527;28;20050;-72
2023/12/28 07:52:08;;;;;;;3.83;2.22;;;;;;;1.78;61.05;99447.34;4948597;28;20362;-73
2023/12/28 07:54:34;;;;;;;2.83;1.90;;;;;;;1.82;61.07;99452.56;4967981;28;20039;-71
2023/12/28 07:57:00;;;;;;;4.05;2.05;;;;;;;1.72;60.94;99441.25;4954281;28;20047;-74
2023/12/28 07:59:27;;;;;;;2.80;2.05;;;;;;;1.58;60.51;99418.69;4969101;28;20041;-67
2023/12/28 08:01:53;;;;;;;4.57;2.03;;;;;;;1.86;61.25;99459.50;4963650;28;20070;-67
2023/12/28 08:04:19;;;;;;;3.47;1.83;;;;;;;1.86;60.55;99462.06;4963145;28;20426;-66
2023/12/28 08:06:45;;;;;;;2.85;1.80;;;;;;;1.84;60.25;99474.00;4967346;28;20101;-67
2023/12/28 08:09:12;;;;;;;2.90;2.00;;;;;;;1.87;60.83;99474.91;4969275;28;20047;-65
2023/12/28 08:11:37;;;;;;;2.95;2.08;;;;;;;1.95;60.70;99485.34;4952752;28;20031;-70
2023/12/28 08:14:04;;;;;;;3.22;1.92;;;;;;;1.61;60.52;99423.06;4960310;28;20100;-64
2023/12/28 08:16:29;;;;;;;3.75;2.10;;;;;;;1.76;60.16;99456.72;4965646;28;20187;-68
2023/12/28 08:18:55;;;;;;;3.15;1.77;;;;;;;1.71;60.11;99436.94;4965562;28;20510;-68
2023/12/28 08:21:21;;;;;;;2.85;1.73;;;;;;;2.00;60.43;99477.72;4963999;28;20054;-68
2023/12/28 08:23:47;;;;;;;4.00;1.98;;;;;;;2.04;60.01;99480.41;4966302;28;20039;-66
2023/12/28 08:26:13;;;;;;;2.47;1.63;;;;;;;1.84;60.32;99446.63;4944734;28;20133;-64
2023/12/28 08:28:40;;;;;;;5.88;1.95;;;;;;;2.01;60.17;99475.19;4961584;28;20474;-65
2023/12/28 08:31:08;;;;;;;2.53;1.70;;;;;;;1.93;60.11;99469.03;4947439;28;20097;-67
2023/12/28 08:33:38;;;;;;;5.85;2.08;;;;;;;2.00;60.25;99483.72;4944928;28;20106;-67
2023/12/28 08:36:06;;;;;;;2.40;1.65;;;;;;;2.02;59.71;99506.84;4944324;28;20537;-68
2023/12/28 08:38:32;;;;;;;3.53;2.20;;;;;;;1.84;59.92;99472.28;4959976;28;20142;-68
2023/12/28 08:40:58;;;;;;;2.95;1.90;;;;;;;2.01;60.10;99490.59;4961288;28;20094;-68
2023/12/28 08:43:24;;;;;;;2.45;1.90;;;;;;;1.79;59.73;99436.25;4945575;28;20119;-69
2023/12/28 08:45:50;;;;;;;2.95;1.95;;;;;;;1.96;59.85;99461.41;4948656;28;20089;-70
2023/12/28 08:48:16;;;;;;;2.90;2.03;;;;;;;1.98;59.88;99464.88;4961467;28;20043;-68
2023/12/28 08:50:42;;;;;;;3.55;2.08;;;;;;;2.27;59.22;99503.09;4960649;28;20053;-69
2023/12/28 08:53:08;;;;;;;3.85;2.45;;;;;;;2.07;59.19;99480.47;4960517;28;20042;-68
2023/12/28 08:55:34;;;;;;;4.63;1.80;;;;;;;2.24;59.62;99487.63;4962547;28;20098;-67
2023/12/28 08:58:00;;;;;;;2.63;1.70;;;;;;;2.26;59.34;99491.09;4948189;28;20050;-73
2023/12/28 09:00:26;;;;;;;2.53;1.85;;;;;;;2.31;58.75;99510.03;4963684;28;20062;-71
2023/12/28 09:02:52;;;;;;;4.40;2.10;;;;;;;2.35;59.31;99511.81;4961722;28;20045;-70
2023/12/28 09:05:18;;;;;;;3.45;2.40;;;;;;;2.49;59.19;99518.94;4961994;28;20506;-76
2023/12/28 09:07:44;;;;;;;3.00;1.95;;;;;;;2.39;59.11;99507.63;4963193;28;20521;-78
2023/12/28 09:10:11;;;;;;;2.50;2.00;;;;;;;2.08;58.73;99463.34;4948934;28;20043;-74
2023/12/28 09:12:38;;;;;;;3.67;2.00;;;;;;;2.50;58.90;99513.81;4961565;28;20055;-71
2023/12/28 09:15:05;;;;;;;3.42;1.92;;;;;;;1.98;58.30;99439.19;4958182;28;20105;-72
2023/12/28 09:17:31;;;;;;;3.13;2.00;;;;;;;2.46;58.61;99516.31;4950306;28;20039;-71
2023/12/28 09:19:58;;;;;;;4.88;1.83;;;;;;;2.33;58.10;99490.38;4965193;28;20049;-69
2023/12/28 09:22:24;;;;;;;3.05;2.13;;;;;;;2.34;58.40;99504.94;4963043;28;20051;-72
2023/12/28 09:24:51;;;;;;;2.92;2.00;;;;;;;2.04;58.56;99443.59;4961222;28;20046;-73
2023/12/28 09:27:17;;;;;;;2.85;2.00;;;;;;;1.70;57.77;99407.84;4959518;28;20042;-76
2023/12/28 09:30:03;;;;;;;2.60;1.90;;;;;;;2.23;57.85;99491.03;4963376;28;20062;-80
2023/12/28 09:32:43;;;;;;;;;;;;;;;;;;;;;
2023/12/28 09:35:17;;;;;;;2.80;1.80;;;;;;;1.86;58.59;99415.88;4975155;28;20049;-76
2023/12/28 09:37:51;;;;;;;4.33;2.07;;;;;;;1.89;57.96;99439.00;4942524;28;20053;-71
2023/12/28 09:40:17;;;;;;;3.47;2.00;;;;;;;1.74;58.24;99425.03;4943214;28;20050;-69
2023/12/28 09:43:00;;;;;;;3.53;2.20;;;;;;;1.55;58.35;99405.81;4958743;28;20074;-75
2023/12/28 09:45:26;;;;;;;2.97;1.83;;;;;;;2.17;57.60;99532.88;4958291;28;20109;-69
2023/12/28 09:47:52;;;;;;;3.33;2.20;;;;;;;1.88;57.99;99515.13;4947010;28;20050;-68
2023/12/28 09:50:19;;;;;;;5.93;2.53;;;;;;;1.57;58.14;99463.13;4963295;28;20433;-70
2023/12/28 09:52:45;;;;;;;4.18;2.40;;;;;;;1.76;57.97;99490.06;4943369;28;20134;-72
2023/12/28 09:55:11;;;;;;;3.88;2.55;;;;;;;2.10;57.83;99556.66;4959820;28;20082;-72
2023/12/28 09:57:38;;;;;;;5.30;2.58;;;;;;;1.70;58.15;99504.47;4961968;28;20049;-72
2023/12/28 10:00:06;;;;;;;3.97;2.80;;;;;;;1.47;58.04;99471.47;4975605;28;20034;-72
2023/12/28 10:02:47;;;;;;;5.00;2.50;;;;;;;1.86;58.74;99531.34;4975234;28;20073;-72
2023/12/28 10:05:16;;;;;;;4.13;2.72;;;;;;;1.49;58.71;99455.28;4975996;28;20045;-70
2023/12/28 10:07:47;;;;;;;5.60;2.67;;;;;;;2.12;58.79;99534.47;4974565;28;20051;-74
2023/12/28 10:10:17;;;;;;;3.80;2.50;;;;;;;2.24;59.10;99544.97;4979588;28;20038;-70
2023/12/28 10:12:45;;;;;;;4.55;2.50;;;;;;;2.42;58.62;99559.06;4990905;28;20049;-69
2023/12/28 10:15:21;;;;;;;4.25;2.53;;;;;;;2.62;58.95;99550.88;4979965;28;20170;-71
2023/12/28 10:17:50;;;;;;;6.25;2.90;;;;;;;2.15;58.53;99454.06;4976647;28;20046;-69
2023/12/28 10:20:27;;;;;;;4.15;2.47;;;;;;;2.39;58.44;99487.94;4959807;28;20065;-70
2023/12/28 10:23:06;;;;;;;3.63;2.45;;;;;;;2.47;58.48;99498.34;4963207;28;20140;-69
2023/12/28 10:25:37;;;;;;;6.38;2.50;;;;;;;2.22;58.42;99448.22;4960165;28;20035;-70
2023/12/28 10:28:12;;;;;;;3.17;2.22;;;;;;;2.28;57.72;99499.72;4992968;28;20046;-73
2023/12/28 10:30:56;;;;;;;5.07;2.50;;;;;;;2.62;58.20;99531.16;4962969;28;20062;-70
2023/12/28 10:33:25;;;;;;;4.65;2.67;;;;;;;2.58;57.94;99500.25;4978524;28;20046;-66
2023/12/28 10:35:52;;;;;;;2.65;2.00;;;;;;;2.68;57.53;99505.59;4971653;28;20409;-67
2023/12/28 10:38:33;;;;;;;4.95;2.63;;;;;;;2.39;57.84;99489.66;4960529;28;20047;-66
2023/12/28 10:41:00;;;;;;;3.80;2.40;;;;;;;2.51;57.11;99519.84;4960876;28;20054;-64
2023/12/28 10:43:48;;;;;;;2.70;2.05;;;;;;;2.67;57.49;99533.81;4955663;28;20051;-65
2023/12/28 10:46:31;;;;;;;3.28;2.00;;;;;;;2.64;57.43;99519.22;4961060;28;20043;-65
2023/12/28 10:49:16;;;;;;;4.05;2.45;;;;;;;2.87;56.97;99536.78;4956170;28;20039;-64
2023/12/28 10:51:56;;;;;;;4.70;3.05;;;;;;;3.00;56.64;99549.00;4971285;28;20043;-63
2023/12/28 10:54:32;;;;;;;4.13;2.75;;;;;;;2.98;56.60;99553.25;4972878;28;20047;-64
2023/12/28 10:57:37;;;;;;;4.38;2.67;;;;;;;2.99;56.05;99544.69;4944656;28;20051;-64
2023/12/28 11:00:10;;;;;;;4.38;2.30;;;;;;;2.52;56.28;99491.59;4969422;28;20073;-63
2023/12/28 11:02:49;;;;;;;5.38;2.30;;;;;;;2.37;55.80;99474.19;4972758;28;20517;-64
2023/12/28 11:05:20;;;;;;;3.28;2.35;;;;;;;2.48;55.99;99501.78;4949898;28;20121;-66
2023/12/28 11:07:56;;;;;;;4.13;2.45;;;;;;;2.24;55.96;99477.38;4945239;28;20049;-63
2023/12/28 11:10:27;;;;;;;3.55;2.30;;;;;;;2.53;56.05;99538.72;4951549;28;20046;-62
2023/12/28 11:12:58;;;;;;;2.70;2.00;;;;;;;2.54;55.86;99559.28;4955789;28;20035;-64
2023/12/28 11:15:26;;;;;;;2.83;1.95;;;;;;;2.06;55.83;99480.41;4973646;28;20043;-64
2023/12/28 11:17:52;;;;;;;3.17;2.28;;;;;;;2.51;55.43;99554.09;4957671;28;20501;-64
2023/12/28 11:20:20;;;;;;;3.75;2.53;;;;;;;2.30;55.42;99545.94;4972131;28;20038;-62
2023/12/28 11:22:49;;;;;;;3.13;1.75;;;;;;;2.01;56.04;99493.16;4964230;28;20110;-63
2023/12/28 11:25:17;;;;;;;3.15;1.98;;;;;;;2.05;55.22;99515.50;4975326;28;20058;-61
2023/12/28 11:27:53;;;;;;;2.95;2.03;;;;;;;2.22;54.80;99556.06;4962929;28;20065;-64
2023/12/28 11:30:19;;;;;;;4.13;2.30;;;;;;;2.00;54.93;99539.31;4977861;28;20055;-61
2023/12/28 11:32:45;;;;;;;3.08;2.10;;;;;;;1.82;55.23;99517.56;4979063;28;20052;-65
2023/12/28 11:35:17;;;;;;;3.58;1.88;;;;;;;1.72;55.36;99498.53;4976906;28;20061;-69
2023/12/28 11:37:49;;;;;;;2.80;1.98;;;;;;;1.63;55.12;99493.22;4963600;28;20088;-66
2023/12/28 11:40:20;;;;;;;3.40;1.90;;;;;;;2.02;54.87;99563.31;4978377;28;20043;-63
2023/12/28 11:42:51;;;;;;;6.55;2.13;;;;;;;1.99;54.92;99563.28;4964421;28;20047;-66
2023/12/28 11:45:27;;;;;;;3.78;2.00;;;;;;;1.72;55.03;99526.75;4977083;28;20046;-65